Time;durP1;ratioP1;P1;durP2;ratioP2;P2;SDS_P1;SDS_P2;PMS_P1;PMS_P2;Temp;Humidity;BMP_temperature;BMP_pressure;BME280_temperature;BME280_humidity;BME280_pressure;Samples;Min_cycle;Max_cycle;Signal;HPM_P1;HPM_P2
2021/08/13 00:01:57;;;;;;;9.80;8.20;;;18.50;99.90;;;;;;5073696;28;20039;-76
2021/08/13 00:04:23;;;;;;;10.52;7.50;;;18.50;99.90;;;;;;5073864;28;20546;-76
2021/08/13 00:06:50;;;;;;;9.15;8.02;;;18.50;99.90;;;;;;5073669;28;20082;-77
2021/08/13 00:09:16;;;;;;;8.00;7.20;;;18.40;99.90;;;;;;5073119;28;20060;-76
2021/08/13 00:11:42;;;;;;;10.13;7.03;;;18.40;99.90;;;;;;5073087;28;20531;-76
2021/08/13 00:14:08;;;;;;;7.53;6.38;;;18.40;99.90;;;;;;5073358;28;20036;-76
2021/08/13 00:16:34;;;;;;;10.32;7.35;;;18.30;99.90;;;;;;5073059;28;20502;-76
2021/08/13 00:19:01;;;;;;;10.23;7.10;;;18.30;99.90;;;;;;5073310;28;20037;-76
2021/08/13 00:21:27;;;;;;;8.88;7.28;;;18.30;99.90;;;;;;5073091;28;20487;-77
2021/08/13 00:23:53;;;;;;;7.68;6.78;;;18.30;99.90;;;;;;5073137;28;20036;-76
2021/08/13 00:26:18;;;;;;;8.57;7.20;;;18.30;99.90;;;;;;5073097;28;20494;-77
2021/08/13 00:28:44;;;;;;;9.50;7.85;;;18.30;99.90;;;;;;5073183;28;20040;-76
2021/08/13 00:31:10;;;;;;;9.10;7.68;;;18.30;99.90;;;;;;5072972;28;20097;-76
2021/08/13 00:33:35;;;;;;;7.82;6.80;;;18.30;99.90;;;;;;5072974;28;20045;-76
2021/08/13 00:36:01;;;;;;;8.77;6.75;;;18.30;99.90;;;;;;5073015;28;20094;-77
2021/08/13 00:38:27;;;;;;;7.90;6.70;;;18.20;99.90;;;;;;5072917;28;20029;-77
2021/08/13 00:40:52;;;;;;;9.43;6.72;;;18.30;99.90;;;;;;5072784;28;20032;-77
2021/08/13 00:43:18;;;;;;;9.98;7.50;;;18.20;99.90;;;;;;5072877;28;20036;-76
2021/08/13 00:45:44;;;;;;;9.80;8.38;;;18.20;99.90;;;;;;5072983;28;20120;-76
2021/08/13 00:48:10;;;;;;;10.02;7.78;;;18.20;99.90;;;;;;5073433;28;20060;-76
2021/08/13 00:50:36;;;;;;;10.65;8.00;;;18.20;99.90;;;;;;5072802;28;20033;-77
2021/08/13 00:53:02;;;;;;;13.05;8.48;;;18.10;99.90;;;;;;5072831;28;20429;-76
2021/08/13 00:55:28;;;;;;;9.60;8.00;;;18.00;99.90;;;;;;5072931;28;20075;-76
2021/08/13 00:57:54;;;;;;;15.00;8.82;;;17.90;99.90;;;;;;5073067;28;20149;-76
2021/08/13 01:00:20;;;;;;;11.65;9.07;;;17.90;99.90;;;;;;5072876;28;20036;-76
2021/08/13 01:02:46;;;;;;;11.57;8.70;;;17.80;99.90;;;;;;5073268;28;20041;-76
2021/08/13 01:05:13;;;;;;;14.45;9.57;;;17.80;99.90;;;;;;5072997;28;20396;-76
2021/08/13 01:07:39;;;;;;;11.95;9.00;;;17.80;99.90;;;;;;5072779;28;20036;-76
2021/08/13 01:10:06;;;;;;;12.95;10.07;;;17.70;99.90;;;;;;5072594;28;20032;-77
2021/08/13 01:12:56;;;;;;;11.32;9.25;;;17.80;99.90;;;;;;5072704;28;20040;-77
2021/08/13 01:15:22;;;;;;;12.63;9.50;;;17.80;99.90;;;;;;5072638;28;20044;-76
2021/08/13 01:18:05;;;;;;;10.75;8.45;;;17.80;99.90;;;;;;5073150;28;20040;-76
2021/08/13 01:20:40;;;;;;;9.52;8.10;;;17.80;99.90;;;;;;5075349;28;20049;-76
2021/08/13 01:23:12;;;;;;;11.45;8.43;;;17.70;99.90;;;;;;5076071;28;20036;-76
2021/08/13 01:25:42;;;;;;;11.43;9.10;;;17.70;99.90;;;;;;5076092;28;20086;-76
2021/08/13 01:28:33;;;;;;;11.35;9.38;;;17.70;99.90;;;;;;5076256;28;20044;-77
2021/08/13 01:31:04;;;;;;;11.32;8.90;;;17.70;99.90;;;;;;5074581;28;20041;-76
2021/08/13 01:33:34;;;;;;;11.20;9.20;;;17.50;99.90;;;;;;5075983;28;20090;-76
2021/08/13 01:36:03;;;;;;;14.60;9.75;;;17.50;99.90;;;;;;5076435;28;20040;-76
2021/08/13 01:38:31;;;;;;;12.35;8.93;;;17.40;99.90;;;;;;5076147;28;20427;-77
2021/08/13 01:41:00;;;;;;;11.35;8.77;;;17.30;99.90;;;;;;5075766;28;20032;-76
2021/08/13 01:43:27;;;;;;;11.88;8.88;;;17.30;99.90;;;;;;5074775;28;20048;-76
2021/08/13 01:45:55;;;;;;;11.38;8.20;;;17.10;99.90;;;;;;5075845;28;20044;-76
2021/08/13 01:48:23;;;;;;;10.52;8.18;;;17.10;99.90;;;;;;5075704;28;20491;-76
2021/08/13 01:50:49;;;;;;;10.18;8.48;;;17.00;99.90;;;;;;5075376;28;20476;-76
2021/08/13 01:53:15;;;;;;;9.48;7.82;;;17.00;99.90;;;;;;5075575;28;20127;-76
2021/08/13 01:55:42;;;;;;;10.32;8.52;;;17.10;99.90;;;;;;5075491;28;20069;-76
2021/08/13 01:58:09;;;;;;;14.07;8.35;;;16.90;99.90;;;;;;5075651;28;20186;-76
2021/08/13 02:00:36;;;;;;;9.88;7.75;;;16.90;99.90;;;;;;5075409;28;20484;-76
2021/08/13 02:03:02;;;;;;;9.98;8.52;;;16.90;99.90;;;;;;5075807;28;20450;-76
2021/08/13 02:05:30;;;;;;;11.73;9.20;;;16.90;99.90;;;;;;5075258;28;20449;-76
2021/08/13 02:07:59;;;;;;;12.98;9.65;;;16.90;99.90;;;;;;5075276;28;20047;-76
2021/08/13 02:10:26;;;;;;;10.90;9.40;;;16.90;99.90;;;;;;5074985;28;20090;-76
2021/08/13 02:12:51;;;;;;;12.88;9.85;;;17.00;99.90;;;;;;5075272;28;20373;-76
2021/08/13 02:15:18;;;;;;;14.43;10.18;;;17.00;99.90;;;;;;5075535;28;20047;-77
2021/08/13 02:17:57;;;;;;;12.68;9.65;;;17.00;99.90;;;;;;5075528;28;20043;-76
2021/08/13 02:20:27;;;;;;;11.07;9.43;;;17.00;99.90;;;;;;5074836;28;20036;-77
2021/08/13 02:22:54;;;;;;;12.55;10.23;;;16.90;99.90;;;;;;5075225;28;20044;-76
2021/08/13 02:25:19;;;;;;;11.82;9.82;;;16.90;99.90;;;;;;5075017;28;20201;-77
2021/08/13 02:27:46;;;;;;;11.48;9.40;;;16.90;99.90;;;;;;5074805;28;20528;-76
2021/08/13 02:30:12;;;;;;;11.23;9.50;;;16.90;99.90;;;;;;5073971;28;20046;-76
2021/08/13 02:32:39;;;;;;;12.65;10.43;;;16.90;99.90;;;;;;5074308;28;20072;-77
2021/08/13 02:35:06;;;;;;;11.25;9.57;;;16.90;99.90;;;;;;5074811;28;20045;-76
2021/08/13 02:37:55;;;;;;;10.15;8.77;;;16.90;99.90;;;;;;5074736;28;20075;-76
2021/08/13 02:40:33;;;;;;;11.77;8.85;;;16.80;99.90;;;;;;5074517;28;20085;-76
2021/08/13 02:43:09;;;;;;;10.27;8.43;;;16.70;99.90;;;;;;5074759;28;20040;-78
2021/08/13 02:45:41;;;;;;;12.05;9.27;;;16.70;99.90;;;;;;5074490;28;20476;-76
2021/08/13 02:48:07;;;;;;;11.48;8.57;;;16.70;99.90;;;;;;5074699;28;20032;-76
2021/08/13 02:50:37;;;;;;;18.30;8.82;;;16.70;99.90;;;;;;5074402;28;20419;-77
2021/08/13 02:53:16;;;;;;;12.25;9.38;;;16.70;99.90;;;;;;5074829;28;20033;-76
2021/08/13 02:55:46;;;;;;;11.70;9.25;;;16.70;99.90;;;;;;5074839;28;20495;-77
2021/08/13 02:58:17;;;;;;;12.15;8.85;;;16.70;99.90;;;;;;5074395;28;20034;-76
2021/08/13 03:00:43;;;;;;;9.90;8.75;;;16.60;99.90;;;;;;5073824;28;20450;-76
2021/08/13 03:03:12;;;;;;;9.20;7.68;;;16.60;99.90;;;;;;5074561;28;20163;-76
2021/08/13 03:05:42;;;;;;;8.10;6.95;;;16.60;99.90;;;;;;5074520;28;20033;-76
2021/08/13 03:08:09;;;;;;;8.27;7.40;;;16.50;99.90;;;;;;5074093;28;20040;-76
2021/08/13 03:10:35;;;;;;;12.38;8.70;;;16.50;99.90;;;;;;5073660;28;20036;-76
2021/08/13 03:13:02;;;;;;;11.50;9.70;;;16.50;99.90;;;;;;5073849;28;20090;-76
2021/08/13 03:15:29;;;;;;;10.45;9.18;;;16.50;99.90;;;;;;5074082;28;20044;-76
2021/08/13 03:17:55;;;;;;;11.40;9.60;;;16.50;99.90;;;;;;5074015;28;20063;-76
2021/08/13 03:20:21;;;;;;;13.70;10.48;;;16.50;99.90;;;;;;5073691;28;20085;-76
2021/08/13 03:22:47;;;;;;;13.10;9.85;;;16.50;99.90;;;;;;5074072;28;20098;-76
2021/08/13 03:25:14;;;;;;;12.98;10.07;;;16.40;99.90;;;;;;5073892;28;20036;-76
2021/08/13 03:27:41;;;;;;;13.30;9.90;;;16.40;99.90;;;;;;5073923;28;20044;-76
2021/08/13 03:30:07;;;;;;;15.02;9.27;;;16.40;99.90;;;;;;5073461;28;20089;-76
2021/08/13 03:32:33;;;;;;;11.18;9.57;;;16.40;99.90;;;;;;5074045;28;20471;-76
2021/08/13 03:34:59;;;;;;;12.48;10.00;;;16.40;99.90;;;;;;5072420;28;20036;-76
2021/08/13 03:37:25;;;;;;;13.30;11.07;;;16.40;99.90;;;;;;5073762;28;20043;-76
2021/08/13 03:39:51;;;;;;;12.10;10.30;;;16.50;99.90;;;;;;5073292;28;20392;-76
2021/08/13 03:42:17;;;;;;;12.20;9.52;;;16.50;99.90;;;;;;5073646;28;20041;-76
2021/08/13 03:44:43;;;;;;;11.55;10.07;;;16.40;99.90;;;;;;5073885;28;20115;-76
2021/08/13 03:47:08;;;;;;;12.23;10.77;;;16.40;99.90;;;;;;5073820;28;20096;-76
2021/08/13 03:49:34;;;;;;;13.82;10.25;;;16.40;99.90;;;;;;5073298;28;20068;-76
2021/08/13 03:52:00;;;;;;;13.95;10.48;;;16.40;99.90;;;;;;5073433;28;20045;-76
2021/08/13 03:54:26;;;;;;;15.32;10.88;;;16.40;99.90;;;;;;5073394;28;20040;-76
2021/08/13 03:56:51;;;;;;;13.02;10.48;;;16.30;99.90;;;;;;5073538;28;20068;-77
2021/08/13 03:59:17;;;;;;;17.75;11.15;;;16.30;99.90;;;;;;5073165;28;20125;-76
2021/08/13 04:01:43;;;;;;;13.20;10.15;;;16.30;99.90;;;;;;5073268;28;20040;-76
2021/08/13 04:04:08;;;;;;;15.13;10.65;;;16.30;99.90;;;;;;5073492;28;20115;-76
2021/08/13 04:06:34;;;;;;;15.07;11.25;;;16.20;99.90;;;;;;5073480;28;20043;-76
2021/08/13 04:09:00;;;;;;;12.88;10.40;;;16.20;99.90;;;;;;5073130;28;20098;-76
2021/08/13 04:11:28;;;;;;;14.77;12.10;;;16.20;99.90;;;;;;5073356;28;20041;-76
2021/08/13 04:13:54;;;;;;;12.90;10.40;;;16.10;99.90;;;;;;5073492;28;20453;-76
2021/08/13 04:16:20;;;;;;;13.07;10.85;;;16.10;99.90;;;;;;5073362;28;20037;-76
2021/08/13 04:18:46;;;;;;;19.90;10.50;;;16.10;99.90;;;;;;5073067;28;20115;-76
2021/08/13 04:21:12;;;;;;;14.93;11.60;;;16.10;99.90;;;;;;5073568;28;20127;-76
2021/08/13 04:23:38;;;;;;;14.27;10.68;;;16.20;99.90;;;;;;5073675;28;20115;-76
2021/08/13 04:26:04;;;;;;;14.45;10.82;;;16.20;99.90;;;;;;5073367;28;20044;-76
2021/08/13 04:28:32;;;;;;;14.95;11.10;;;16.20;99.90;;;;;;5071527;28;20048;-77
2021/08/13 04:30:58;;;;;;;16.38;11.00;;;16.20;99.90;;;;;;5073247;28;20036;-76
2021/08/13 04:33:24;;;;;;;16.95;12.57;;;16.20;99.90;;;;;;5073459;28;20037;-76
2021/08/13 04:35:50;;;;;;;16.17;11.27;;;16.20;99.90;;;;;;5072923;28;20045;-77
2021/08/13 04:38:17;;;;;;;13.77;10.93;;;16.30;99.90;;;;;;5073182;28;20044;-76
2021/08/13 04:40:44;;;;;;;13.95;10.85;;;16.20;99.90;;;;;;5072688;28;20037;-76
2021/08/13 04:43:11;;;;;;;14.88;10.85;;;16.20;99.90;;;;;;5073238;28;20127;-77
2021/08/13 04:45:37;;;;;;;14.25;10.90;;;16.20;99.90;;;;;;5073091;28;20040;-76
2021/08/13 04:48:03;;;;;;;14.48;10.80;;;16.20;99.90;;;;;;5072903;28;20498;-76
2021/08/13 04:50:31;;;;;;;15.98;11.38;;;16.20;99.90;;;;;;5072436;28;20121;-77
2021/08/13 04:52:57;;;;;;;17.55;11.75;;;16.30;99.90;;;;;;5072822;28;20524;-77
2021/08/13 04:55:24;;;;;;;16.05;10.90;;;16.30;99.90;;;;;;5076130;28;20041;-76
2021/08/13 04:57:51;;;;;;;12.52;10.45;;;16.30;99.90;;;;;;5076765;28;20084;-76
2021/08/13 05:00:18;;;;;;;15.40;11.55;;;16.40;99.90;;;;;;5076352;28;20093;-76
2021/08/13 05:02:44;;;;;;;16.23;11.52;;;16.50;99.90;;;;;;5076521;28;20484;-76
2021/08/13 05:05:21;;;;;;;18.58;12.40;;;16.50;99.90;;;;;;5076424;28;20075;-76
2021/08/13 05:07:47;;;;;;;15.70;12.75;;;16.50;99.90;;;;;;5076722;28;20068;-76
2021/08/13 05:10:15;;;;;;;17.17;12.93;;;16.50;99.90;;;;;;5076409;28;20040;-76
2021/08/13 05:12:42;;;;;;;17.00;13.23;;;16.60;99.90;;;;;;5076363;28;20048;-76
2021/08/13 05:15:10;;;;;;;18.98;12.48;;;16.60;99.90;;;;;;5076468;28;20051;-77
2021/08/13 05:17:36;;;;;;;16.77;12.13;;;16.60;99.90;;;;;;5076242;28;20071;-76
2021/08/13 05:20:06;;;;;;;14.35;11.93;;;16.80;99.90;;;;;;5076491;28;20040;-76
2021/08/13 05:22:34;;;;;;;16.63;11.82;;;16.80;99.90;;;;;;5076256;28;20051;-76
2021/08/13 05:25:09;;;;;;;16.88;12.77;;;16.90;99.90;;;;;;5076008;28;20040;-76
2021/08/13 05:27:38;;;;;;;16.25;12.10;;;17.10;99.90;;;;;;5076042;28;20044;-76
2021/08/13 05:30:24;;;;;;;15.80;11.45;;;17.20;99.90;;;;;;5075126;28;20059;-75
2021/08/13 05:32:51;;;;;;;17.23;12.80;;;17.40;99.90;;;;;;5076022;28;20120;-74
2021/08/13 05:35:16;;;;;;;15.35;11.32;;;17.60;99.90;;;;;;5076388;28;20072;-76
2021/08/13 05:37:42;;;;;;;18.15;13.38;;;17.80;99.90;;;;;;5076152;28;20064;-76
2021/08/13 05:40:10;;;;;;;16.15;11.40;;;18.00;99.90;;;;;;5075388;28;20032;-76
2021/08/13 05:42:36;;;;;;;18.48;13.38;;;18.20;99.90;;;;;;5075722;28;20063;-76
2021/08/13 05:45:02;;;;;;;13.85;11.65;;;18.20;99.90;;;;;;5075729;28;20047;-76
2021/08/13 05:47:27;;;;;;;17.40;12.07;;;18.50;99.90;;;;;;5075778;28;20396;-76
2021/08/13 05:49:53;;;;;;;17.05;12.95;;;18.60;99.90;;;;;;5075430;28;20064;-76
2021/08/13 05:52:19;;;;;;;15.88;12.85;;;18.90;99.90;;;;;;5075451;28;20454;-76
2021/08/13 05:54:44;;;;;;;15.20;12.52;;;18.80;99.90;;;;;;5075874;28;20063;-76
2021/08/13 05:57:10;;;;;;;19.20;14.68;;;18.90;99.90;;;;;;5075836;28;20104;-76
2021/08/13 05:59:36;;;;;;;24.92;14.50;;;18.90;99.90;;;;;;5075361;28;20036;-76
2021/08/13 06:02:01;;;;;;;22.88;17.10;;;19.10;99.90;;;;;;5075587;28;20150;-76
2021/08/13 06:04:27;;;;;;;22.98;17.58;;;19.40;99.90;;;;;;5075143;28;20115;-76
2021/08/13 06:06:53;;;;;;;22.67;17.58;;;19.70;99.90;;;;;;5075234;28;20041;-76
2021/08/13 06:09:18;;;;;;;23.92;17.85;;;19.90;99.90;;;;;;5074968;28;20048;-76
2021/08/13 06:11:44;;;;;;;22.80;17.00;;;20.10;99.90;;;;;;5075098;28;20063;-76
2021/08/13 06:14:10;;;;;;;22.92;18.10;;;20.30;99.90;;;;;;5075074;28;20036;-75
2021/08/13 06:16:35;;;;;;;22.35;16.33;;;20.50;99.90;;;;;;5075203;28;20032;-76
2021/08/13 06:19:01;;;;;;;22.77;16.83;;;20.60;99.90;;;;;;5075108;28;20044;-75
2021/08/13 06:21:29;;;;;;;21.10;16.23;;;20.70;99.90;;;;;;5073774;28;20066;-76
2021/08/13 06:23:55;;;;;;;20.05;15.20;;;20.70;99.90;;;;;;5074931;28;20068;-76
2021/08/13 06:26:21;;;;;;;20.23;15.95;;;20.70;99.90;;;;;;5074966;28;20064;-76
2021/08/13 06:28:47;;;;;;;19.63;15.85;;;20.70;99.90;;;;;;5074546;28;20150;-76
2021/08/13 06:31:13;;;;;;;18.58;14.90;;;20.50;99.90;;;;;;5073527;28;20044;-76
2021/08/13 06:33:38;;;;;;;20.35;14.13;;;20.50;99.90;;;;;;5074866;28;20036;-75
2021/08/13 06:36:04;;;;;;;20.38;15.38;;;20.40;99.90;;;;;;5074945;28;20041;-76
2021/08/13 06:38:32;;;;;;;21.38;14.55;;;20.30;99.90;;;;;;5074930;28;20036;-76
2021/08/13 06:40:58;;;;;;;21.55;13.95;;;20.50;99.90;;;;;;5074689;28;20037;-76
2021/08/13 06:43:28;;;;;;;18.60;13.20;;;20.70;99.90;;;;;;5090286;28;20472;-76
2021/08/13 06:45:54;;;;;;;18.27;12.98;;;20.70;99.90;;;;;;5075086;28;20047;-76
2021/08/13 06:48:20;;;;;;;18.02;13.48;;;20.80;99.90;;;;;;5074577;28;20044;-76
2021/08/13 06:50:45;;;;;;;16.98;13.35;;;20.80;99.90;;;;;;5074527;28;20082;-76
2021/08/13 06:53:11;;;;;;;19.17;13.52;;;20.70;99.90;;;;;;5074395;28;20063;-76
2021/08/13 06:55:37;;;;;;;19.23;13.45;;;20.70;99.90;;;;;;5074525;28;20048;-76
2021/08/13 06:58:03;;;;;;;17.42;13.30;;;20.80;99.90;;;;;;5074549;28;20037;-76
2021/08/13 07:00:29;;;;;;;18.92;13.82;;;20.80;99.90;;;;;;5073802;28;20044;-76
2021/08/13 07:02:55;;;;;;;18.88;13.63;;;21.00;99.90;;;;;;5074814;28;20036;-76
2021/08/13 07:05:21;;;;;;;20.75;13.30;;;21.00;99.90;;;;;;5074082;28;20041;-76
2021/08/13 07:07:46;;;;;;;18.10;13.20;;;21.00;99.90;;;;;;5074013;28;20040;-76
2021/08/13 07:10:12;;;;;;;15.20;12.15;;;21.00;99.90;;;;;;5073788;28;20041;-76
2021/08/13 07:12:39;;;;;;;17.63;11.95;;;21.10;99.90;;;;;;5074009;28;20446;-76
2021/08/13 07:15:07;;;;;;;15.63;12.43;;;21.20;99.90;;;;;;5074128;28;20124;-75
2021/08/13 07:17:34;;;;;;;15.65;11.98;;;21.20;99.90;;;;;;5073413;28;20032;-75
2021/08/13 07:20:00;;;;;;;16.65;11.77;;;21.30;99.90;;;;;;5073739;28;20043;-74
2021/08/13 07:22:26;;;;;;;15.80;12.15;;;21.30;99.90;;;;;;5073777;28;20068;-70
2021/08/13 07:24:52;;;;;;;15.77;10.75;;;21.30;99.90;;;;;;5073850;28;20079;-70
2021/08/13 07:27:17;;;;;;;16.58;11.07;;;21.30;99.90;;;;;;5074286;28;20078;-71
2021/08/13 07:29:45;;;;;;;16.60;11.75;;;21.20;99.90;;;;;;5073393;28;20040;-70
2021/08/13 07:32:10;;;;;;;14.45;10.90;;;21.30;99.90;;;;;;5074147;28;20040;-70
2021/08/13 07:34:36;;;;;;;16.52;10.98;;;21.20;99.90;;;;;;5074174;28;20127;-70
2021/08/13 07:37:02;;;;;;;15.50;11.10;;;21.20;99.90;;;;;;5073978;28;20495;-71
2021/08/13 07:39:27;;;;;;;16.58;11.73;;;21.20;99.90;;;;;;5073355;28;20040;-71
2021/08/13 07:41:53;;;;;;;14.63;10.73;;;21.10;99.90;;;;;;5073478;28;20036;-71
2021/08/13 07:44:19;;;;;;;15.88;10.70;;;21.00;99.90;;;;;;5073502;28;20094;-71
2021/08/13 07:46:44;;;;;;;13.55;10.68;;;21.10;99.90;;;;;;5073831;28;20381;-71
2021/08/13 07:49:10;;;;;;;14.10;10.55;;;21.10;99.90;;;;;;5073402;28;20380;-71
2021/08/13 07:51:36;;;;;;;14.30;10.68;;;21.10;99.90;;;;;;5073277;28;20211;-71
2021/08/13 07:54:01;;;;;;;15.32;10.77;;;21.20;99.90;;;;;;5073371;28;20381;-70
2021/08/13 07:56:27;;;;;;;15.55;10.70;;;21.10;99.90;;;;;;5073410;28;20090;-70
2021/08/13 07:58:53;;;;;;;14.90;10.50;;;21.20;99.90;;;;;;5072969;28;20491;-71
2021/08/13 08:01:18;;;;;;;14.98;10.98;;;21.10;99.90;;;;;;5073421;28;20075;-71
2021/08/13 08:03:44;;;;;;;13.98;10.90;;;21.10;99.90;;;;;;5073817;28;20040;-71
2021/08/13 08:06:10;;;;;;;15.38;11.45;;;21.20;99.90;;;;;;5073183;28;20443;-68
2021/08/13 08:08:35;;;;;;;13.60;10.73;;;21.10;99.90;;;;;;5072965;28;20047;-72
2021/08/13 08:11:01;;;;;;;17.33;10.77;;;21.30;99.90;;;;;;5071920;28;20056;-72
2021/08/13 08:13:27;;;;;;;14.52;11.02;;;21.40;99.90;;;;;;5073110;28;20028;-72
2021/08/13 08:15:52;;;;;;;16.92;9.90;;;21.40;99.90;;;;;;5071867;28;20480;-72
2021/08/13 08:18:22;;;;;;;12.50;9.23;;;21.50;99.90;;;;;;5073367;28;20039;-72
2021/08/13 08:20:48;;;;;;;15.35;9.55;;;21.40;99.90;;;;;;5073014;28;20419;-72
2021/08/13 08:23:14;;;;;;;12.95;9.23;;;21.50;99.90;;;;;;5072053;28;20041;-72
2021/08/13 08:25:39;;;;;;;15.32;10.23;;;21.60;99.90;;;;;;5073300;28;20039;-72
2021/08/13 08:28:05;;;;;;;14.18;10.10;;;21.70;99.90;;;;;;5074058;28;20526;-72
2021/08/13 08:30:35;;;;;;;12.15;9.23;;;21.80;99.90;;;;;;5076712;28;20040;-72
2021/08/13 08:33:00;;;;;;;14.82;9.82;;;21.90;99.90;;;;;;5075816;28;20128;-72
2021/08/13 08:35:26;;;;;;;12.48;10.32;;;22.00;99.90;;;;;;5077438;28;20067;-72
2021/08/13 08:37:57;;;;;;;15.23;9.38;;;22.10;99.90;;;;;;5076683;28;20036;-73
2021/08/13 08:40:29;;;;;;;15.30;9.88;;;22.10;99.90;;;;;;5096760;28;20036;-72
2021/08/13 08:42:56;;;;;;;13.53;10.33;;;22.10;99.90;;;;;;5096297;28;20043;-72
2021/08/13 08:45:23;;;;;;;13.60;9.30;;;22.20;99.90;;;;;;5097299;28;20281;-72
2021/08/13 08:47:50;;;;;;;13.43;9.65;;;22.20;99.90;;;;;;5097024;28;20032;-71
2021/08/13 08:50:16;;;;;;;15.18;9.88;;;22.20;99.90;;;;;;5096608;28;20119;-72
2021/08/13 08:52:44;;;;;;;14.25;10.10;;;22.20;99.90;;;;;;5096897;28;20040;-72
2021/08/13 08:55:10;;;;;;;12.82;9.63;;;22.10;99.90;;;;;;5096987;28;20044;-72
2021/08/13 08:57:40;;;;;;;13.80;9.05;;;22.10;99.90;;;;;;5096985;28;20476;-72
2021/08/13 09:00:07;;;;;;;12.45;9.02;;;22.10;99.90;;;;;;5095225;28;20042;-72
2021/08/13 09:02:33;;;;;;;10.07;7.65;;;22.30;99.90;;;;;;5096616;28;20040;-70
2021/08/13 09:05:00;;;;;;;13.73;9.15;;;22.40;99.90;;;;;;5096790;28;20078;-71
2021/08/13 09:07:26;;;;;;;11.15;7.82;;;22.50;99.90;;;;;;5096586;28;20069;-71
2021/08/13 09:09:52;;;;;;;12.85;9.18;;;22.70;99.90;;;;;;5095059;28;20168;-72
2021/08/13 09:12:18;;;;;;;13.43;8.30;;;22.80;99.90;;;;;;5096424;28;20131;-73
2021/08/13 09:14:44;;;;;;;11.65;8.43;;;22.80;99.90;;;;;;5095377;28;20480;-71
2021/08/13 09:17:09;;;;;;;9.00;7.18;;;22.70;99.90;;;;;;5096400;28;20162;-71
2021/08/13 09:19:49;;;;;;;13.20;9.10;;;22.50;99.90;;;;;;5096305;28;20073;-71
2021/08/13 09:22:17;;;;;;;12.93;9.23;;;22.30;99.90;;;;;;5096916;28;20044;-71
2021/08/13 09:24:47;;;;;;;17.25;10.82;;;22.20;99.90;;;;;;5096706;28;20043;-70
2021/08/13 09:27:22;;;;;;;14.55;10.65;;;22.10;99.90;;;;;;5096350;28;20040;-70
2021/08/13 09:30:17;;;;;;;14.85;12.18;;;21.90;99.90;;;;;;5096036;28;20055;-70
2021/08/13 09:33:07;;;;;;;14.57;11.07;;;21.70;99.90;;;;;;5095139;28;20044;-72
2021/08/13 09:35:38;;;;;;;15.65;11.50;;;21.60;99.90;;;;;;5096310;28;20035;-73
2021/08/13 09:38:13;;;;;;;14.68;10.35;;;21.50;99.90;;;;;;5096662;28;20032;-73
2021/08/13 09:40:45;;;;;;;13.73;9.60;;;21.60;99.90;;;;;;5094980;28;20033;-72
2021/08/13 09:43:11;;;;;;;13.07;9.02;;;21.60;99.90;;;;;;5096434;28;20040;-72
2021/08/13 09:45:37;;;;;;;12.13;9.25;;;21.60;99.90;;;;;;5096371;28;20086;-73
2021/08/13 09:48:04;;;;;;;13.68;9.07;;;21.50;99.90;;;;;;5096229;28;20036;-72
2021/08/13 09:50:35;;;;;;;12.30;9.55;;;21.50;99.90;;;;;;5095412;28;20042;-73
2021/08/13 09:53:12;;;;;;;15.57;10.03;;;21.60;99.90;;;;;;5095642;28;20093;-72
2021/08/13 09:55:39;;;;;;;14.77;10.13;;;21.60;99.90;;;;;;5095865;28;20281;-73
2021/08/13 09:58:07;;;;;;;12.70;9.45;;;21.80;99.90;;;;;;5095922;28;20036;-73
2021/08/13 10:00:43;;;;;;;11.95;9.55;;;21.80;99.90;;;;;;5095496;28;20051;-70
2021/08/13 10:03:10;;;;;;;11.75;9.00;;;21.90;99.90;;;;;;5095708;28;20040;-72
2021/08/13 10:05:36;;;;;;;12.05;9.25;;;22.10;99.90;;;;;;5095687;28;20103;-71
2021/08/13 10:08:04;;;;;;;11.15;8.82;;;22.10;99.90;;;;;;5095566;28;20487;-75
2021/08/13 10:10:35;;;;;;;12.63;9.52;;;22.20;99.90;;;;;;5095188;28;20067;-73
2021/08/13 10:13:08;;;;;;;12.80;9.23;;;22.20;99.90;;;;;;5095027;28;20096;-74
2021/08/13 10:15:43;;;;;;;12.48;8.60;;;22.10;99.90;;;;;;5095428;28;20063;-73
2021/08/13 10:18:14;;;;;;;11.15;9.40;;;22.00;99.90;;;;;;5095260;28;20040;-73
2021/08/13 10:20:47;;;;;;;13.10;9.13;;;21.80;99.90;;;;;;5094578;28;20040;-72
2021/08/13 10:23:14;;;;;;;11.35;8.52;;;21.80;99.90;;;;;;5095535;28;20039;-71
2021/08/13 10:25:40;;;;;;;13.70;9.23;;;21.60;99.90;;;;;;5095504;28;20036;-72
2021/08/13 10:28:07;;;;;;;9.95;8.05;;;21.60;99.90;;;;;;5095214;28;20452;-73
2021/08/13 10:30:32;;;;;;;13.75;8.57;;;21.50;99.90;;;;;;5094707;28;20040;-73
2021/08/13 10:33:02;;;;;;;11.05;8.50;;;21.60;99.90;;;;;;5095202;28;20040;-72
2021/08/13 10:35:34;;;;;;;10.88;7.50;;;21.60;99.90;;;;;;5094179;28;20449;-73
2021/08/13 10:38:02;;;;;;;8.65;7.07;;;21.60;99.90;;;;;;5095067;28;20097;-72
2021/08/13 10:40:30;;;;;;;9.20;5.95;;;21.50;99.90;;;;;;5094431;28;20089;-73
2021/08/13 10:42:56;;;;;;;11.07;6.38;;;21.60;99.90;;;;;;5094914;28;20119;-72
2021/08/13 10:45:25;;;;;;;8.73;5.18;;;21.50;99.90;;;;;;5094854;28;20076;-72
2021/08/13 10:48:14;;;;;;;9.60;6.50;;;21.50;99.90;;;;;;5094981;28;20090;-73
2021/08/13 10:50:40;;;;;;;9.75;6.30;;;21.60;99.90;;;;;;5094230;28;20040;-73
2021/08/13 10:53:27;;;;;;;10.52;5.82;;;21.60;99.90;;;;;;5093731;28;20047;-72
2021/08/13 10:56:03;;;;;;;10.32;5.32;;;21.60;99.90;;;;;;5093665;28;20039;-72
2021/08/13 10:58:41;;;;;;;8.30;4.60;;;21.60;99.90;;;;;;5094534;28;20495;-73
2021/08/13 11:01:19;;;;;;;6.68;3.88;;;21.70;99.90;;;;;;5094560;28;20038;-73
2021/08/13 11:04:05;;;;;;;9.50;4.78;;;21.70;99.90;;;;;;5094565;28;20032;-72
2021/08/13 11:06:37;;;;;;;9.15;4.35;;;21.60;99.90;;;;;;5094103;28;20052;-73
2021/08/13 11:09:04;;;;;;;7.75;4.25;;;21.70;99.90;;;;;;5093929;28;20032;-72
2021/08/13 11:11:52;;;;;;;7.30;4.25;;;21.70;99.90;;;;;;5094344;28;20089;-72
2021/08/13 11:14:58;;;;;;;6.70;4.25;;;21.50;99.90;;;;;;5094251;28;20442;-72
2021/08/13 11:17:33;;;;;;;5.72;3.55;;;21.60;99.90;;;;;;5094487;28;20157;-72
2021/08/13 11:20:01;;;;;;;7.95;4.13;;;21.60;99.90;;;;;;5093998;28;20043;-73
2021/08/13 11:22:35;;;;;;;11.40;4.63;;;21.60;99.90;;;;;;5093986;28;20427;-72
2021/08/13 11:25:03;;;;;;;7.40;4.28;;;21.60;99.90;;;;;;5094515;28;20483;-72
2021/08/13 11:27:28;;;;;;;8.20;4.43;;;21.60;99.90;;;;;;5094363;28;20467;-73
2021/08/13 11:29:54;;;;;;;8.20;3.85;;;21.60;99.90;;;;;;5093716;28;20040;-72
2021/08/13 11:32:24;;;;;;;7.68;3.60;;;21.70;99.90;;;;;;5093728;28;20036;-72
2021/08/13 11:35:06;;;;;;;8.13;4.00;;;21.70;99.90;;;;;;5093958;28;20434;-73
2021/08/13 11:37:38;;;;;;;6.97;3.80;;;21.70;99.90;;;;;;5093938;28;20368;-73
2021/08/13 11:40:06;;;;;;;8.55;4.40;;;21.70;99.90;;;;;;5093677;28;20119;-72
2021/08/13 11:42:33;;;;;;;8.73;4.05;;;21.70;99.90;;;;;;5094240;28;20040;-73
2021/08/13 11:45:03;;;;;;;7.55;3.67;;;21.70;99.90;;;;;;5094218;28;20043;-73
2021/08/13 11:47:29;;;;;;;9.15;4.25;;;21.70;99.90;;;;;;5094028;28;20036;-72
2021/08/13 11:49:56;;;;;;;9.32;4.35;;;21.80;99.90;;;;;;5093829;28;20036;-72
2021/08/13 11:52:24;;;;;;;6.28;3.58;;;21.70;99.90;;;;;;5093843;28;20038;-72
2021/08/13 11:54:50;;;;;;;5.65;3.38;;;21.70;99.90;;;;;;5094152;28;20068;-72
2021/08/13 11:57:19;;;;;;;7.10;3.40;;;21.70;99.90;;;;;;5093724;28;20040;-73
2021/08/13 11:59:46;;;;;;;9.90;4.03;;;21.60;99.90;;;;;;5093386;28;20089;-73
2021/08/13 12:02:12;;;;;;;9.10;4.53;;;21.70;99.90;;;;;;5093664;28;20400;-73
2021/08/13 12:04:38;;;;;;;7.63;3.55;;;21.70;99.90;;;;;;5093167;28;20042;-73
2021/08/13 12:07:06;;;;;;;7.53;3.95;;;21.70;99.90;;;;;;5093328;28;20429;-72
2021/08/13 12:09:39;;;;;;;5.38;3.45;;;21.70;99.90;;;;;;5093028;28;20067;-73
2021/08/13 12:12:06;;;;;;;9.98;3.47;;;21.70;99.90;;;;;;5093186;28;20473;-71
2021/08/13 12:14:33;;;;;;;6.78;3.63;;;21.80;99.90;;;;;;5093250;28;20123;-70
2021/08/13 12:16:59;;;;;;;9.55;3.72;;;21.80;99.90;;;;;;5093340;28;20040;-71
2021/08/13 12:19:25;;;;;;;10.98;3.97;;;21.80;99.90;;;;;;5092985;28;20118;-71
2021/08/13 12:22:02;;;;;;;6.97;3.40;;;21.80;99.90;;;;;;5092099;28;20439;-71
2021/08/13 12:24:39;;;;;;;9.73;3.78;;;21.80;99.90;;;;;;5093952;28;20092;-71
2021/08/13 12:27:10;;;;;;;8.48;3.20;;;21.70;99.90;;;;;;5093476;28;20128;-71
2021/08/13 12:29:39;;;;;;;6.32;3.17;;;21.50;99.90;;;;;;5093317;28;20036;-70
2021/08/13 12:32:07;;;;;;;5.38;3.47;;;21.50;99.90;;;;;;5093557;28;20043;-70
2021/08/13 12:34:37;;;;;;;9.88;2.90;;;21.40;99.90;;;;;;5093210;28;20130;-71
2021/08/13 12:37:05;;;;;;;8.13;3.83;;;21.40;99.90;;;;;;5093782;28;20399;-70
2021/08/13 12:39:34;;;;;;;7.78;3.80;;;21.30;99.90;;;;;;5091598;28;20036;-70
2021/08/13 12:42:00;;;;;;;8.77;3.58;;;21.40;99.90;;;;;;5093215;28;20036;-71